createdAt,value
2022-10-29T00:00:29.841Z,11.63
2022-10-29T00:05:33.844Z,13.75
2022-10-29T00:10:38.887Z,18.50
2022-10-29T00:15:42.767Z,12.65
2022-10-29T00:20:46.427Z,14.73
2022-10-29T00:25:51.458Z,13.18
2022-10-29T00:30:55.151Z,12.63
2022-10-29T00:36:00.648Z,18.13
2022-10-29T00:41:08.196Z,13.82
2022-10-29T00:46:17.507Z,14.07
2022-10-29T00:51:21.853Z,13.57
2022-10-29T00:56:29.083Z,17.20
2022-10-29T01:01:33.016Z,15.07
2022-10-29T01:06:36.754Z,13.55
2022-10-29T01:11:49.846Z,11.10
2022-10-29T01:17:06.010Z,14.00
2022-10-29T01:22:14.807Z,13.25
2022-10-29T01:27:59.768Z,13.93
2022-10-29T01:33:11.497Z,13.43
2022-10-29T01:38:30.609Z,10.70
2022-10-29T01:43:39.029Z,15.60
2022-10-29T01:48:47.304Z,13.73
2022-10-29T01:53:52.228Z,11.55
2022-10-29T01:59:00.036Z,18.25
2022-10-29T02:04:21.753Z,16.02
2022-10-29T02:09:32.745Z,15.55
2022-10-29T02:14:39.989Z,16.52
2022-10-29T02:19:45.175Z,15.77
2022-10-29T02:24:48.833Z,12.90
2022-10-29T02:29:52.439Z,11.23
2022-10-29T02:34:59.688Z,11.70
2022-10-29T02:45:58.167Z,11.43
2022-10-29T02:51:03.205Z,12.63
2022-10-29T02:56:07.817Z,10.98
2022-10-29T03:01:11.517Z,11.65
2022-10-29T03:06:17.727Z,12.80
2022-10-29T03:11:21.992Z,10.87
2022-10-29T03:16:25.664Z,14.27
2022-10-29T03:21:30.709Z,14.23
2022-10-29T03:26:34.387Z,12.77
2022-10-29T03:31:37.988Z,9.93
2022-10-29T03:36:43.067Z,10.20
2022-10-29T03:41:46.795Z,9.35
2022-10-29T03:46:50.421Z,13.35
2022-10-29T03:51:55.427Z,17.65
2022-10-29T03:56:59.243Z,12.23
2022-10-29T04:02:03.034Z,12.30
2022-10-29T04:07:08.159Z,14.40
2022-10-29T04:12:11.835Z,12.82
2022-10-29T04:17:15.513Z,12.32
2022-10-29T04:28:17.586Z,16.73
2022-10-29T04:33:07.773Z,11.45
2022-10-29T04:38:14.007Z,12.88
2022-10-29T04:43:18.383Z,12.73
2022-10-29T04:48:22.382Z,11.98
2022-10-29T04:53:27.490Z,19.25
2022-10-29T04:58:31.109Z,10.73
2022-10-29T05:03:34.840Z,9.82
2022-10-29T05:08:39.844Z,13.40
2022-10-29T05:13:45.205Z,14.75
2022-10-29T05:18:48.919Z,10.07
2022-10-29T05:23:53.899Z,16.27
2022-10-29T05:28:57.545Z,15.70
2022-10-29T05:34:01.160Z,17.20
2022-10-29T05:39:06.246Z,19.95
2022-10-29T05:44:09.965Z,19.25
2022-10-29T05:49:13.644Z,13.65
2022-10-29T05:54:18.613Z,14.07
2022-10-29T05:59:22.244Z,12.98
2022-10-29T06:04:25.924Z,12.90
2022-10-29T06:09:31.006Z,15.20
2022-10-29T06:14:34.698Z,14.90
2022-10-29T06:24:43.255Z,16.58
2022-10-29T06:29:46.869Z,17.02
2022-10-29T06:34:50.453Z,14.85
2022-10-29T06:39:55.396Z,13.52
2022-10-29T06:44:58.985Z,12.85
2022-10-29T06:50:02.699Z,20.00
2022-10-29T06:55:09.138Z,12.07
2022-10-29T07:00:13.730Z,13.50
2022-10-29T07:05:17.581Z,16.30
2022-10-29T07:10:22.667Z,14.85
2022-10-29T07:15:30.913Z,18.00
2022-10-29T07:20:37.727Z,14.80
2022-10-29T07:25:53.535Z,14.35
2022-10-29T07:31:01.547Z,14.30
2022-10-29T07:36:05.571Z,14.05
2022-10-29T07:41:10.637Z,19.00
2022-10-29T07:46:14.231Z,21.23
2022-10-29T07:51:17.876Z,15.70
2022-10-29T07:56:22.866Z,22.15
2022-10-29T08:01:26.645Z,17.27
2022-10-29T08:06:30.417Z,11.38
2022-10-29T08:11:35.776Z,14.75
2022-10-29T08:16:39.543Z,16.05
2022-10-29T08:21:43.240Z,12.90
2022-10-29T08:26:48.342Z,17.65
2022-10-29T08:31:52.076Z,12.18
2022-10-29T08:36:55.812Z,14.95
2022-10-29T08:42:11.765Z,12.13
2022-10-29T08:47:20.531Z,14.03
2022-10-29T08:52:28.590Z,15.63
2022-10-29T08:57:38.416Z,19.45
2022-10-29T09:02:42.145Z,13.82
2022-10-29T09:08:02.334Z,16.85
2022-10-29T09:13:25.213Z,14.65
2022-10-29T09:18:44.476Z,15.20
2022-10-29T09:24:01.623Z,16.80
2022-10-29T09:29:28.846Z,12.27
2022-10-29T09:34:36.881Z,17.30
2022-10-29T09:39:43.222Z,15.65
2022-10-29T09:44:53.191Z,14.60
2022-10-29T09:50:08.383Z,12.10
2022-10-29T09:55:21.785Z,18.48
2022-10-29T10:00:29.000Z,11.32
2022-10-29T10:05:55.624Z,14.70
2022-10-29T10:16:07.532Z,18.38
2022-10-29T10:26:36.915Z,9.75
2022-10-29T10:31:42.584Z,14.05
2022-10-29T10:36:50.146Z,9.77
2022-10-29T10:41:54.654Z,8.45
2022-10-29T10:47:06.094Z,10.02
2022-10-29T10:52:18.210Z,9.25
2022-10-29T10:57:25.853Z,12.23
2022-10-29T11:02:40.507Z,9.85
2022-10-29T11:07:52.143Z,11.10
2022-10-29T11:12:57.844Z,7.00
2022-10-29T11:18:12.587Z,7.25
2022-10-29T11:23:28.370Z,7.15
2022-10-29T11:28:41.675Z,7.68
2022-10-29T11:33:58.709Z,8.45
2022-10-29T11:39:10.030Z,5.25
2022-10-29T11:44:15.523Z,7.03
2022-10-29T11:49:38.162Z,3.88
2022-10-29T11:54:56.903Z,11.05
2022-10-29T12:00:13.021Z,9.20
2022-10-29T12:05:24.275Z,8.75
2022-10-29T12:10:42.561Z,5.00
2022-10-29T12:15:53.952Z,10.43
2022-10-29T12:21:06.425Z,6.90
2022-10-29T12:26:15.569Z,5.70
2022-10-29T12:31:26.705Z,7.90
2022-10-29T12:36:37.955Z,6.32
2022-10-29T12:41:45.262Z,5.45
2022-10-29T12:46:56.887Z,6.15
2022-10-29T12:52:06.091Z,10.85
2022-10-29T12:57:28.920Z,6.18
2022-10-29T13:02:51.655Z,9.45
2022-10-29T13:08:28.561Z,8.57
2022-10-29T13:13:50.076Z,8.40
2022-10-29T13:19:17.275Z,9.75
2022-10-29T13:24:22.799Z,9.75
2022-10-29T13:29:50.535Z,7.50
2022-10-29T13:34:56.861Z,7.22
2022-10-29T13:40:38.028Z,7.82
2022-10-29T13:45:47.866Z,6.10
2022-10-29T13:50:53.416Z,6.70
2022-10-29T13:55:58.927Z,14.38
2022-10-29T14:01:10.370Z,9.15
2022-10-29T14:06:22.543Z,11.32
2022-10-29T14:11:30.187Z,6.97
2022-10-29T14:16:35.393Z,11.43
2022-10-29T14:21:40.672Z,8.27
2022-10-29T14:26:46.069Z,10.75
2022-10-29T14:32:05.958Z,8.05
2022-10-29T14:37:16.965Z,7.60
2022-10-29T14:42:27.793Z,8.30
2022-10-29T14:47:34.866Z,9.00
2022-10-29T14:52:42.267Z,5.55
2022-10-29T14:57:49.339Z,9.38
2022-10-29T15:02:56.086Z,7.72
2022-10-29T15:08:08.210Z,5.60
2022-10-29T15:13:22.526Z,9.27
2022-10-29T15:18:27.970Z,11.48
2022-10-29T15:23:36.886Z,9.05
2022-10-29T15:28:42.428Z,7.93
2022-10-29T15:33:50.893Z,9.73
2022-10-29T15:39:26.681Z,12.75
2022-10-29T15:44:36.376Z,7.70
2022-10-29T15:49:41.387Z,8.30
2022-10-29T15:54:45.069Z,10.95
2022-10-29T15:59:48.758Z,7.30
2022-10-29T16:04:53.886Z,5.95
2022-10-29T16:09:59.982Z,7.75
2022-10-29T16:15:03.643Z,8.87
2022-10-29T16:20:14.370Z,5.88
2022-10-29T16:25:25.903Z,8.65
2022-10-29T16:30:29.887Z,7.93
2022-10-29T16:35:34.914Z,7.30
2022-10-29T16:40:38.644Z,10.10
2022-10-29T16:45:42.464Z,9.40
2022-10-29T16:50:47.517Z,7.20
2022-10-29T16:55:51.194Z,9.07
2022-10-29T17:01:06.332Z,8.18
2022-10-29T17:06:12.306Z,5.18
2022-10-29T17:11:16.022Z,8.52
2022-10-29T17:16:19.774Z,6.72
2022-10-29T17:21:25.138Z,12.45
2022-10-29T17:26:28.809Z,6.00
2022-10-29T17:31:32.576Z,7.60
2022-10-29T17:36:40.981Z,9.75
2022-10-29T17:41:44.761Z,8.68
2022-10-29T17:46:48.451Z,8.95
2022-10-29T17:51:53.937Z,10.63
2022-10-29T17:57:00.577Z,10.38
2022-10-29T18:02:04.472Z,8.45
2022-10-29T18:07:09.609Z,7.60
2022-10-29T18:12:13.193Z,11.15
2022-10-29T18:17:16.802Z,10.60
2022-10-29T18:22:22.035Z,11.52
2022-10-29T18:27:25.684Z,11.35
2022-10-29T18:32:29.332Z,8.30
2022-10-29T18:37:34.375Z,10.60
2022-10-29T18:42:38.009Z,12.43
2022-10-29T18:47:41.631Z,10.18
2022-10-29T18:52:46.800Z,13.73
2022-10-29T18:57:50.542Z,8.07
2022-10-29T19:02:54.292Z,14.82
2022-10-29T19:08:03.141Z,7.78
2022-10-29T19:13:07.419Z,11.85
2022-10-29T19:18:11.066Z,6.18
2022-10-29T19:23:24.646Z,7.68
2022-10-29T19:28:30.725Z,9.15
2022-10-29T19:33:34.763Z,6.40
2022-10-29T19:38:39.804Z,11.45
2022-10-29T19:43:46.176Z,8.88
2022-10-29T19:48:51.757Z,10.35
2022-10-29T19:53:58.026Z,8.15
2022-10-29T19:59:01.716Z,5.85
2022-10-29T20:04:05.639Z,12.82
2022-10-29T20:09:11.183Z,9.98
2022-10-29T20:14:15.090Z,7.28
2022-10-29T20:19:18.858Z,10.18
2022-10-29T20:24:23.846Z,6.30
2022-10-29T20:29:27.551Z,9.80
2022-10-29T20:34:31.170Z,8.57
2022-10-29T20:39:36.206Z,7.38
2022-10-29T20:44:39.879Z,10.93
2022-10-29T20:49:43.563Z,13.82
2022-10-29T20:54:48.541Z,11.50
2022-10-29T20:59:52.240Z,7.30
2022-10-29T21:04:55.932Z,12.52
2022-10-29T21:10:00.868Z,10.13
2022-10-29T21:15:04.878Z,10.15
2022-10-29T21:20:09.168Z,6.72
2022-10-29T21:25:14.151Z,8.02
2022-10-29T21:30:17.876Z,5.82
2022-10-29T21:35:21.741Z,10.10
2022-10-29T21:40:26.791Z,9.35
2022-10-29T21:45:30.376Z,9.57
2022-10-29T21:50:34.148Z,11.15
2022-10-29T21:55:39.165Z,8.45
2022-10-29T22:00:42.796Z,12.80
2022-10-29T22:05:46.565Z,10.40
2022-10-29T22:10:51.549Z,11.95
2022-10-29T22:15:55.375Z,9.48
2022-10-29T22:21:16.032Z,11.30
2022-10-29T22:26:22.942Z,12.02
2022-10-29T22:31:27.426Z,10.63
2022-10-29T22:36:31.918Z,10.88
2022-10-29T22:41:36.956Z,13.52
2022-10-29T22:46:40.567Z,12.48
2022-10-29T22:51:44.212Z,8.23
2022-10-29T22:56:49.187Z,8.90
2022-10-29T23:01:52.933Z,11.50
2022-10-29T23:07:01.603Z,11.40
2022-10-29T23:12:07.474Z,11.82
2022-10-29T23:17:11.090Z,13.27
2022-10-29T23:27:28.180Z,11.23
2022-10-29T23:32:31.790Z,10.48
2022-10-29T23:37:35.333Z,15.07
2022-10-29T23:42:40.340Z,12.15
2022-10-29T23:47:44.095Z,10.05
2022-10-29T23:52:47.734Z,9.45
2022-10-29T23:57:52.859Z,7.72
